X  Blizu METAR Podaci o vazduhoplovstvu     LIML Milano Linate Airport
Temperatura
24°C Temperatura
12°C Tačka Rose
47% Vlaga



Vetar
11 KM/H
7 MPH
3 M/S
6 KTS



190°
Jug
Trenutna situacija

Delimično oblačno Delimično oblačno
Vazdušni pritisak 1006.92 (hPa) - 29.73 (inHg)
Vidljivost 6.2 (Milje) - 10 (km)
Aerodrom
Aerodromski kod. LIML

Lokacija: Milano Linate Airport
Udaljenost: 100 (km)

Metar:
LIML 041120Z 19006KT 150V220 9999 SCT100 24/12 Q1007 NOSIG

Vreme: 04-08-2020 13:20 CEST